Aérodrome :
LOGIN :

S'inscrire | Disclaimer

   EN    FR    IT 

 










Légende :    VFR   VFR Marginal   IFR   IFR Intensif   IFR Très Intensif
Visi : 
Plafond : 
>= 8 km
>= 3000ft
5 à 8 km
1000 à 3000 ft
1500m à 5 km
500 à 1000 ft
800 à 1500m
200 à 500 ft
< 800m
< 200 ft
Symboles :   Orages  Brouillard  Fortes neiges  Fortes précipitations  Vent > 20 kt
SIGMETs :   Divers  Orages  Givrage  Turbulence  Onde Orograph.  Cendres Volcan.






- Altitude de l'aérodrome : 408 ft
- Code IATA : SOB


LHSM - Sarmellek Balaton

DERNIER METAR :
  • 231445Z AUTO VRB03KT CAVOK 24/13 Q1014 NOSIG

METARs EXPIRÉS :
  • 231415Z AUTO 32005KT 230V030 9999 FEW046 24/13 Q1014 NOSIG
  • 231345Z AUTO VRB03KT 9999 FEW047 24/13 Q1014 NOSIG
  • 231315Z AUTO VRB06KT CAVOK 23/14 Q1015 NOSIG
  • 231245Z AUTO VRB05KT 9999 //////TCU 23/13 Q1015 NOSIG
  • 231215Z AUTO 35006KT 290V040 9999 FEW043 22/13 Q1015 NOSIG
  • 231145Z AUTO 35006KT 300V060 9999 BKN040 22/14 Q1015 NOSIG
  • 231115Z AUTO 02007KT 310V060 CAVOK 22/14 Q1015 NOSIG
  • 231045Z AUTO 36008KT 300V040 CAVOK 22/14 Q1016 NOSIG
  • 231015Z AUTO VRB03KT 9999 FEW034 BKN099 21/15 Q1016 NOSIG
  • 230945Z AUTO 34006KT 290V050 CAVOK 21/14 Q1016 NOSIG

TAF TAF LHSM
Valide du 23 à 15h jusqu'au 24 à 00h UTC


231415Z 2315/2324 VRB03KT CAVOK
PROB30
TEMPO 2315/2317 VRB12G22KT 6000 SHRA -TSRA SCT030CB SCT040TCU
BECMG 2319/2322 4000 BR NSC



MET'MAP, la Météo Aéronautique d'un coup d'oeil ! - Copyright ORBIFLY Décembre 2007 - Disclaimer

ORBIFLY MET'MAP TEAM :

Programmation & Développement : Alexandra Zaïnal
Sur une idée originale de : Baudouin d'Aumeries
Soutien technique & logistique : Manuel Goepfert
Assistance : Marc-Olivier Méhu




SOURCES & CREDITS :

   NOAA